Time;durP1;ratioP1;P1;durP2;ratioP2;P2;SDS_P1;SDS_P2;PMS_P1;PMS_P2;Temp;Humidity;BMP_temperature;BMP_pressure;BME280_temperature;BME280_humidity;BME280_pressure;Samples;Min_cycle;Max_cycle;Signal;HPM_P1;HPM_P2
2021/04/09 00:00:01;;;;;;;6.13;1.27;;;10.50;73.40;10.80;99941.00;;;;329751;29;94344;-91
2021/04/09 00:00:13;;;;;;;5.53;1.50;;;10.50;73.50;10.70;99930.00;;;;328221;29;91240;-91
2021/04/09 00:00:25;;;;;;;5.30;1.55;;;10.50;73.50;10.80;99934.00;;;;329932;29;95326;-91
2021/04/09 00:00:36;;;;;;;5.80;1.46;;;10.50;73.10;10.70;99928.00;;;;330635;29;93206;-91
2021/04/09 00:00:48;;;;;;;5.25;1.25;;;10.50;73.30;10.60;99938.00;;;;328382;29;95197;-91
2021/04/09 00:01:00;;;;;;;4.43;1.13;;;10.50;73.50;10.60;99935.00;;;;333136;29;91304;-90
2021/04/09 00:01:11;;;;;;;5.63;1.60;;;10.50;73.40;10.70;99939.00;;;;332259;29;94172;-91
2021/04/09 00:01:23;;;;;;;6.65;1.48;;;10.50;73.20;10.60;99947.00;;;;334391;29;92180;-91
2021/04/09 00:01:46;;;;;;;6.95;1.33;;;10.50;73.50;10.60;99945.00;;;;332201;29;96837;-91
2021/04/09 00:01:57;;;;;;;4.82;1.00;;;10.50;73.50;10.60;99952.00;;;;330648;29;92138;-92
2021/04/09 00:02:11;;;;;;;4.75;0.98;;;10.50;73.70;10.70;99942.00;;;;330747;29;96608;-92
2021/04/09 00:02:23;;;;;;;6.45;1.27;;;10.50;73.30;10.60;99939.00;;;;330931;29;92178;-91
2021/04/09 00:02:35;;;;;;;8.43;1.77;;;10.50;73.40;10.60;99953.00;;;;332229;29;95140;-91
2021/04/09 00:02:46;;;;;;;7.80;1.77;;;10.40;73.70;10.50;99942.00;;;;333244;29;93045;-91
2021/04/09 00:02:58;;;;;;;4.57;1.42;;;10.40;73.60;10.60;99945.00;;;;330696;29;96437;-92
2021/04/09 00:03:11;;;;;;;5.47;1.48;;;10.40;73.50;10.70;99939.00;;;;329608;29;92086;-91
2021/04/09 00:03:22;;;;;;;5.72;1.30;;;10.40;73.40;10.60;99940.00;;;;329622;29;95697;-91
2021/04/09 00:03:34;;;;;;;5.63;1.40;;;10.40;73.60;10.70;99943.00;;;;329395;29;92318;-91
2021/04/09 00:03:45;;;;;;;5.43;1.40;;;10.50;73.60;10.70;99949.00;;;;327180;29;96625;-91
2021/04/09 00:03:57;;;;;;;6.07;1.63;;;10.40;73.40;10.60;99948.00;;;;328159;29;92094;-92
2021/04/09 00:04:09;;;;;;;5.68;1.40;;;10.50;73.50;10.70;99943.00;;;;330794;29;95324;-91
2021/04/09 00:04:20;;;;;;;4.80;1.30;;;10.40;73.80;10.60;99950.00;;;;330740;29;92031;-92
2021/04/09 00:04:32;;;;;;;5.65;1.42;;;10.40;73.40;10.60;99934.00;;;;333271;29;95836;-91
2021/04/09 00:04:44;;;;;;;5.32;1.50;;;10.40;73.50;10.70;99940.00;;;;333230;29;92192;-91
2021/04/09 00:04:55;;;;;;;5.82;1.70;;;10.40;73.20;10.70;99939.00;;;;333533;29;96946;-92
2021/04/09 00:05:10;;;;;;;4.78;1.23;;;10.40;73.20;10.50;99936.00;;;;332026;29;91944;-92
2021/04/09 00:05:21;;;;;;;5.47;1.20;;;10.40;73.50;10.60;99939.00;;;;333470;29;96436;-92
2021/04/09 00:05:35;;;;;;;5.35;1.38;;;10.40;73.50;10.60;99944.00;;;;331986;29;91262;-93
2021/04/09 00:05:47;;;;;;;5.15;1.27;;;10.40;73.40;10.60;99940.00;;;;330901;29;96624;-92
2021/04/09 00:05:58;;;;;;;4.30;1.35;;;10.40;73.50;10.70;99940.00;;;;334461;29;92055;-91
2021/04/09 00:06:09;;;;;;;6.63;1.70;;;10.40;73.50;10.60;99943.00;;;;333369;29;96569;-91
2021/04/09 00:06:21;;;;;;;6.53;1.70;;;10.40;73.50;10.50;99948.00;;;;332121;29;91225;-92
2021/04/09 00:06:32;;;;;;;6.72;1.30;;;10.40;73.50;10.60;99944.00;;;;330955;29;95130;-91
2021/04/09 00:06:44;;;;;;;5.75;1.10;;;10.40;73.40;10.70;99943.00;;;;333361;29;92026;-91
2021/04/09 00:06:55;;;;;;;6.50;1.05;;;10.40;73.20;10.70;99944.00;;;;333470;29;96348;-92
2021/04/09 00:07:07;;;;;;;5.90;1.25;;;10.40;73.00;10.70;99941.00;;;;333244;29;92022;-91
2021/04/09 00:07:19;;;;;;;5.93;1.35;;;10.40;72.90;10.80;99945.00;;;;332687;29;95954;-91
2021/04/09 00:07:30;;;;;;;5.25;1.27;;;10.40;73.00;10.70;99949.00;;;;334320;29;92272;-91
2021/04/09 00:07:41;;;;;;;4.15;1.00;;;10.40;73.20;10.70;99943.00;;;;333469;29;96032;-91
2021/04/09 00:07:53;;;;;;;5.25;0.98;;;10.40;73.10;10.70;99947.00;;;;330584;29;92121;-92
2021/04/09 00:08:05;;;;;;;5.75;1.15;;;10.50;73.20;10.60;99953.00;;;;330839;29;95317;-92
2021/04/09 00:08:16;;;;;;;8.70;1.50;;;10.40;73.30;10.70;99952.00;;;;332516;29;92159;-92
2021/04/09 00:08:28;;;;;;;10.52;1.60;;;10.40;73.20;10.70;99950.00;;;;330913;29;95230;-92
2021/04/09 00:08:39;;;;;;;11.13;1.73;;;10.40;73.10;10.60;99942.00;;;;333390;29;93146;-92
2021/04/09 00:08:51;;;;;;;7.35;1.50;;;10.40;73.30;10.60;99947.00;;;;332052;29;97562;-91
2021/04/09 00:09:06;;;;;;;6.60;1.70;;;10.40;73.30;10.60;99941.00;;;;333391;29;91997;-92
2021/04/09 00:09:17;;;;;;;6.15;1.52;;;10.40;73.20;10.60;99943.00;;;;332147;29;97144;-92
2021/04/09 00:09:28;;;;;;;6.07;1.45;;;10.40;73.10;10.60;99943.00;;;;330582;29;92083;-92
2021/04/09 00:09:40;;;;;;;5.44;1.44;;;10.40;73.20;10.70;99944.00;;;;333442;29;96611;-92
2021/04/09 00:09:51;;;;;;;4.72;1.30;;;10.40;73.00;10.60;99938.00;;;;331963;29;91998;-91
2021/04/09 00:10:10;;;;;;;5.65;1.02;;;10.40;72.90;10.60;99944.00;;;;330829;29;95898;-91
2021/04/09 00:10:23;;;;;;;4.10;0.73;;;10.40;73.10;10.60;99946.00;;;;331930;29;91177;-92
2021/04/09 00:10:34;;;;;;;4.05;0.73;;;10.40;72.90;10.60;99935.00;;;;330954;29;94265;-91
2021/04/09 00:10:45;;;;;;;5.65;1.25;;;10.40;73.00;10.50;99940.00;;;;332802;29;93030;-91
2021/04/09 00:10:57;;;;;;;6.82;1.67;;;10.40;73.10;10.60;99939.00;;;;332166;29;96675;-91
2021/04/09 00:11:08;;;;;;;5.47;1.40;;;10.40;73.00;10.70;99948.00;;;;334610;29;92497;-92
2021/04/09 00:11:19;;;;;;;5.72;1.08;;;10.40;72.90;10.70;99936.00;;;;332059;29;93828;-92
2021/04/09 00:11:31;;;;;;;6.13;1.08;;;10.40;72.90;10.70;99945.00;;;;330656;29;91199;-93
2021/04/09 00:11:42;;;;;;;6.90;1.30;;;10.40;72.90;10.70;99936.00;;;;329716;29;95117;-92
2021/04/09 00:11:54;;;;;;;6.22;1.25;;;10.40;73.20;10.80;99934.00;;;;329455;29;92107;-92
2021/04/09 00:12:06;;;;;;;5.70;1.23;;;10.40;73.10;10.70;99933.00;;;;332319;29;92955;-91
2021/04/09 00:12:17;;;;;;;5.63;1.00;;;10.40;73.00;10.60;99944.00;;;;333266;29;91167;-92
2021/04/09 00:12:32;;;;;;;6.03;0.85;;;10.40;73.10;10.60;99941.00;;;;332139;29;96997;-91
2021/04/09 00:12:44;;;;;;;4.60;0.85;;;10.40;73.00;10.60;99941.00;;;;330709;29;92907;-91
2021/04/09 00:12:56;;;;;;;4.00;1.00;;;10.40;73.00;10.60;99938.00;;;;332071;29;98432;-92
2021/04/09 00:13:08;;;;;;;5.07;0.90;;;10.40;72.90;10.70;99942.00;;;;333175;28;91354;-92
2021/04/09 00:13:20;;;;;;;5.28;0.88;;;10.40;72.80;10.80;99942.00;;;;330731;29;95437;-92
2021/04/09 00:13:31;;;;;;;4.68;0.75;;;10.40;72.80;10.70;99938.00;;;;333234;29;92010;-90
2021/04/09 00:13:42;;;;;;;6.22;0.88;;;10.40;72.80;10.70;99942.00;;;;331739;29;93978;-91
2021/04/09 00:13:54;;;;;;;6.57;1.05;;;10.40;72.80;10.60;99943.00;;;;332915;29;92213;-91
2021/04/09 00:14:06;;;;;;;7.38;1.20;;;10.40;72.50;10.60;99940.00;;;;333368;29;95700;-92
2021/04/09 00:14:17;;;;;;;5.85;1.15;;;10.40;72.60;10.60;99939.00;;;;332278;29;92115;-91
2021/04/09 00:14:29;;;;;;;6.30;1.25;;;10.40;72.70;10.70;99937.00;;;;332177;29;94597;-91
2021/04/09 00:14:40;;;;;;;6.45;1.50;;;10.40;72.40;10.70;99931.00;;;;330794;29;92966;-92
2021/04/09 00:14:52;;;;;;;6.25;1.42;;;10.40;72.40;10.70;99936.00;;;;329552;29;96023;-92
2021/04/09 00:15:09;;;;;;;4.65;1.00;;;10.40;72.30;10.70;99937.00;;;;329456;29;92092;-91
2021/04/09 00:15:20;;;;;;;4.80;0.93;;;10.40;72.30;10.70;99945.00;;;;329592;29;96771;-91
2021/04/09 00:15:32;;;;;;;5.15;1.20;;;10.40;72.40;10.70;99931.00;;;;329486;29;92154;-91
2021/04/09 00:15:43;;;;;;;4.70;1.30;;;10.40;72.50;10.60;99937.00;;;;329753;29;95647;-92
2021/04/09 00:15:55;;;;;;;4.28;1.30;;;10.40;72.50;10.60;99935.00;;;;329600;29;91959;-91
2021/04/09 00:16:07;;;;;;;5.55;0.90;;;10.40;72.40;10.70;99940.00;;;;329739;29;94938;-93
2021/04/09 00:16:18;;;;;;;6.47;1.05;;;10.40;72.30;10.60;99936.00;;;;331600;29;92199;-92
2021/04/09 00:16:30;;;;;;;5.88;1.00;;;10.40;73.10;10.50;99943.00;;;;330813;29;96864;-91
2021/04/09 00:16:42;;;;;;;5.38;1.00;;;10.40;72.60;10.60;99937.00;;;;331795;29;92865;-91
2021/04/09 00:16:53;;;;;;;3.90;0.80;;;10.40;72.50;10.60;99928.00;;;;329760;29;95564;-91
2021/04/09 00:17:05;;;;;;;3.47;0.70;;;10.40;72.50;10.60;99930.00;;;;330825;29;91127;-92
2021/04/09 00:17:17;;;;;;;3.58;0.65;;;10.40;72.40;10.60;99949.00;;;;331675;29;95660;-91
2021/04/09 00:17:28;;;;;;;4.30;0.68;;;10.40;72.40;10.60;99933.00;;;;333277;29;91187;-92
2021/04/09 00:17:42;;;;;;;7.22;1.15;;;10.40;72.30;10.60;99932.00;;;;336231;28;95741;-91
2021/04/09 00:17:53;;;;;;;7.88;1.10;;;10.40;72.40;10.70;99940.00;;;;333271;29;92839;-92
2021/04/09 00:18:05;;;;;;;7.63;0.93;;;10.40;72.30;10.70;99936.00;;;;333567;29;96712;-92
2021/04/09 00:18:16;;;;;;;6.32;0.90;;;10.40;72.30;10.80;99936.00;;;;333398;29;91206;-91
2021/04/09 00:18:27;;;;;;;7.90;1.10;;;10.40;72.30;10.60;99946.00;;;;332185;29;96532;-91
2021/04/09 00:18:39;;;;;;;5.05;1.02;;;10.40;72.40;10.70;99942.00;;;;330910;29;92884;-91
2021/04/09 00:18:51;;;;;;;4.95;0.85;;;10.40;72.40;10.80;99936.00;;;;332253;29;96347;-92
2021/04/09 00:19:06;;;;;;;3.97;0.90;;;10.40;72.20;10.70;99943.00;;;;330884;29;92060;-92
2021/04/09 00:19:21;;;;;;;3.45;1.05;;;10.50;72.10;10.60;99935.00;;;;334310;29;96686;-92
2021/04/09 00:19:32;;;;;;;3.78;1.00;;;10.40;72.20;10.60;99937.00;;;;330630;29;92105;-91
2021/04/09 00:19:44;;;;;;;3.97;0.95;;;10.40;72.10;10.70;99943.00;;;;333579;29;96031;-91
2021/04/09 00:19:55;;;;;;;5.40;1.00;;;10.40;72.00;10.70;99942.00;;;;333514;29;91476;-91
2021/04/09 00:20:08;;;;;;;5.53;0.90;;;10.40;71.90;10.70;99934.00;;;;334921;29;93254;-92
2021/04/09 00:20:23;;;;;;;5.32;0.82;;;10.40;72.00;10.70;99932.00;;;;332140;29;92125;-92
2021/04/09 00:20:34;;;;;;;7.25;1.08;;;10.40;72.70;10.70;99941.00;;;;332250;29;95499;-92
2021/04/09 00:20:45;;;;;;;7.25;1.00;;;10.50;71.90;10.60;99933.00;;;;333454;29;92941;-91
2021/04/09 00:20:57;;;;;;;5.00;0.75;;;10.50;72.20;10.60;99933.00;;;;330771;29;95719;-92
2021/04/09 00:21:08;;;;;;;5.32;0.85;;;10.40;72.30;10.70;99935.00;;;;332158;29;92107;-91
2021/04/09 00:21:20;;;;;;;5.20;0.80;;;10.40;72.10;10.70;99944.00;;;;331014;29;93124;-91
2021/04/09 00:21:31;;;;;;;5.35;0.95;;;10.40;72.00;10.70;99943.00;;;;328192;29;91383;-91
2021/04/09 00:21:43;;;;;;;4.82;0.90;;;10.50;72.00;10.60;99941.00;;;;330853;29;94436;-92
2021/04/09 00:21:55;;;;;;;3.75;0.85;;;10.40;72.20;10.60;99930.00;;;;329997;29;92347;-92
2021/04/09 00:22:07;;;;;;;2.95;0.68;;;10.40;72.30;10.70;99931.00;;;;328519;29;95846;-92
2021/04/09 00:22:18;;;;;;;3.38;0.60;;;10.40;72.20;10.60;99939.00;;;;330506;29;92627;-92
2021/04/09 00:22:30;;;;;;;5.22;0.73;;;10.50;72.20;10.60;99941.00;;;;332213;29;96880;-91
2021/04/09 00:22:41;;;;;;;5.70;0.95;;;10.50;72.10;10.70;99935.00;;;;332183;29;92913;-92
2021/04/09 00:22:53;;;;;;;5.47;1.10;;;10.40;72.10;10.70;99934.00;;;;333840;29;93698;-92
2021/04/09 00:23:04;;;;;;;5.72;1.30;;;10.40;72.40;10.50;99944.00;;;;333506;29;91218;-91
2021/04/09 00:23:15;;;;;;;4.97;1.15;;;10.40;72.50;10.40;99935.00;;;;333602;29;96122;-92
2021/04/09 00:23:27;;;;;;;4.93;1.02;;;10.40;72.70;10.60;99944.00;;;;332034;29;91386;-91
2021/04/09 00:23:39;;;;;;;4.78;1.02;;;10.40;72.20;10.60;99941.00;;;;330911;29;95136;-90
2021/04/09 00:23:50;;;;;;;4.93;1.05;;;10.40;72.30;10.60;99938.00;;;;330958;29;91119;-91
2021/04/09 00:24:03;;;;;;;4.40;0.95;;;10.40;72.40;10.60;99934.00;;;;331135;29;95786;-92
2021/04/09 00:24:14;;;;;;;3.60;0.80;;;10.40;72.40;10.60;99930.00;;;;332237;29;92088;-92
2021/04/09 00:24:26;;;;;;;3.08;0.60;;;10.40;72.20;10.50;99931.00;;;;332427;29;96802;-92
2021/04/09 00:24:38;;;;;;;3.50;0.85;;;10.40;72.30;10.50;99929.00;;;;333719;29;92047;-91
2021/04/09 00:24:50;;;;;;;3.50;1.30;;;10.40;72.30;10.50;99931.00;;;;331173;29;97884;-92
2021/04/09 00:25:06;;;;;;;5.80;1.60;;;10.30;72.30;10.50;99932.00;;;;332484;29;91223;-91
2021/04/09 00:25:18;;;;;;;5.93;1.10;;;10.30;72.10;10.50;99941.00;;;;333965;29;94204;-91
2021/04/09 00:25:30;;;;;;;4.32;0.82;;;10.30;72.30;10.40;99926.00;;;;334928;29;92160;-90
2021/04/09 00:25:41;;;;;;;2.88;0.68;;;10.30;72.50;10.50;99935.00;;;;332520;29;96973;-91
2021/04/09 00:25:53;;;;;;;2.53;1.10;;;10.30;72.40;10.60;99939.00;;;;332623;29;91094;-92
2021/04/09 00:26:04;;;;;;;2.55;1.40;;;10.30;72.30;10.60;99927.00;;;;331439;29;95378;-92
2021/04/09 00:26:16;;;;;;;3.17;1.60;;;10.30;72.30;10.50;99930.00;;;;331794;29;92199;-92
2021/04/09 00:26:28;;;;;;;2.95;0.98;;;10.30;72.50;10.60;99933.00;;;;331394;29;96627;-91
2021/04/09 00:26:40;;;;;;;3.42;0.98;;;10.30;72.50;10.60;99941.00;;;;333835;29;92897;-92
2021/04/09 00:26:51;;;;;;;5.80;1.05;;;10.30;72.60;10.50;99938.00;;;;331389;29;96547;-92
2021/04/09 00:27:03;;;;;;;6.22;1.08;;;10.30;72.60;10.50;99932.00;;;;333953;29;91936;-92
2021/04/09 00:27:15;;;;;;;6.43;0.80;;;10.30;72.50;10.50;99937.00;;;;333654;29;96988;-91
2021/04/09 00:27:26;;;;;;;8.40;1.05;;;10.30;72.50;10.50;99935.00;;;;333770;29;91729;-91
2021/04/09 00:27:38;;;;;;;8.38;1.08;;;10.30;72.60;10.60;99938.00;;;;331285;29;95810;-92
2021/04/09 00:27:50;;;;;;;6.13;1.05;;;10.30;72.50;10.60;99939.00;;;;332654;29;91133;-91
2021/04/09 00:28:02;;;;;;;4.00;1.00;;;10.30;72.50;10.50;99942.00;;;;331361;29;96442;-91
2021/04/09 00:28:14;;;;;;;8.73;1.45;;;10.30;72.60;10.40;99934.00;;;;330041;29;92206;-91
2021/04/09 00:28:25;;;;;;;8.30;1.25;;;10.30;72.60;10.60;99942.00;;;;331023;29;94126;-92
2021/04/09 00:28:36;;;;;;;7.55;1.00;;;10.30;72.40;10.60;99939.00;;;;331108;29;92980;-91
2021/04/09 00:28:48;;;;;;;3.00;0.65;;;10.30;72.40;10.40;99935.00;;;;331235;29;96440;-91
2021/04/09 00:28:59;;;;;;;3.75;0.98;;;10.30;72.70;10.40;99930.00;;;;330029;29;91188;-91
2021/04/09 00:29:11;;;;;;;5.05;1.35;;;10.30;72.70;10.50;99939.00;;;;332615;29;97241;-90
2021/04/09 00:29:22;;;;;;;5.97;1.92;;;10.30;72.50;10.50;99935.00;;;;331145;29;91175;-91
2021/04/09 00:29:33;;;;;;;5.94;1.70;;;10.30;72.40;10.40;99934.00;;;;331298;29;97288;-91
2021/04/09 00:29:45;;;;;;;6.00;1.67;;;10.30;72.60;10.40;99948.00;;;;331255;29;91580;-92
2021/04/09 00:29:56;;;;;;;4.43;0.90;;;10.30;72.70;10.30;99934.00;;;;331440;29;96618;-91
2021/04/09 00:30:10;;;;;;;3.70;0.73;;;10.30;72.70;10.50;99935.00;;;;333841;29;91174;-91
2021/04/09 00:30:26;;;;;;;3.65;0.80;;;10.20;72.50;10.50;99940.00;;;;332508;29;96202;-91
2021/04/09 00:30:37;;;;;;;5.20;0.88;;;10.30;72.60;10.50;99939.00;;;;332481;29;93263;-93
2021/04/09 00:30:49;;;;;;;6.10;0.95;;;10.30;72.60;10.40;99935.00;;;;332722;29;96032;-92
2021/04/09 00:31:00;;;;;;;7.07;1.50;;;10.30;72.60;10.30;99943.00;;;;332439;29;92102;-91
2021/04/09 00:31:11;;;;;;;6.95;1.50;;;10.30;72.70;10.30;99929.00;;;;332114;29;95635;-91
2021/04/09 00:31:23;;;;;;;5.00;0.88;;;10.20;72.50;10.40;99947.00;;;;333326;29;92165;-91
2021/04/09 00:31:35;;;;;;;5.13;0.82;;;10.20;72.70;10.50;99953.00;;;;331054;29;96429;-91
2021/04/09 00:31:46;;;;;;;2.85;0.80;;;10.30;72.70;10.40;99942.00;;;;332009;29;91271;-91
2021/04/09 00:31:58;;;;;;;2.65;0.80;;;10.20;72.60;10.50;99939.00;;;;329494;29;96106;-92
2021/04/09 00:32:09;;;;;;;2.88;1.08;;;10.20;72.60;10.50;99931.00;;;;330649;29;92116;-92
2021/04/09 00:32:21;;;;;;;3.63;1.20;;;10.20;72.60;10.50;99940.00;;;;334855;29;95340;-91
2021/04/09 00:32:32;;;;;;;4.38;1.10;;;10.20;72.60;10.40;99940.00;;;;333548;29;91970;-92
2021/04/09 00:32:46;;;;;;;4.90;1.00;;;10.20;72.70;10.40;99943.00;;;;336205;28;96342;-91
2021/04/09 00:32:58;;;;;;;4.07;1.05;;;10.20;72.60;10.50;99938.00;;;;332017;29;92492;-93
2021/04/09 00:33:09;;;;;;;3.72;1.08;;;10.20;72.70;10.30;99940.00;;;;334841;29;96606;-92
2021/04/09 00:33:21;;;;;;;3.65;0.95;;;10.20;73.00;10.50;99943.00;;;;333278;29;92104;-92
2021/04/09 00:33:32;;;;;;;5.93;1.00;;;10.20;72.80;10.30;99936.00;;;;331004;29;95822;-91
2021/04/09 00:33:44;;;;;;;7.43;0.90;;;10.20;72.70;10.30;99934.00;;;;330843;29;91176;-91
2021/04/09 00:33:55;;;;;;;8.02;0.70;;;10.20;72.80;10.40;99937.00;;;;330756;29;96503;-91
2021/04/09 00:34:07;;;;;;;12.38;0.80;;;10.20;72.80;10.30;99938.00;;;;330716;29;92070;-91
2021/04/09 00:34:19;;;;;;;9.50;0.90;;;10.20;72.80;10.30;99944.00;;;;331892;29;96083;-92
2021/04/09 00:34:30;;;;;;;7.63;1.30;;;10.20;72.80;10.30;99936.00;;;;334428;29;93338;-91
2021/04/09 00:34:42;;;;;;;7.53;1.33;;;10.20;72.70;10.40;99942.00;;;;332019;29;97542;-91
2021/04/09 00:34:53;;;;;;;7.72;1.40;;;10.20;72.70;10.40;99937.00;;;;332035;29;92075;-91
2021/04/09 00:35:06;;;;;;;5.97;1.20;;;10.20;72.60;10.40;99941.00;;;;332259;29;94099;-92
2021/04/09 00:35:17;;;;;;;5.13;1.30;;;10.20;72.80;10.40;99938.00;;;;334225;29;92141;-91
2021/04/09 00:35:29;;;;;;;6.00;1.10;;;10.20;72.80;10.40;99941.00;;;;329448;29;96952;-92
2021/04/09 00:35:43;;;;;;;6.95;0.65;;;10.20;72.50;10.30;99948.00;;;;331843;29;92053;-93
2021/04/09 00:35:54;;;;;;;5.60;0.70;;;10.20;72.50;10.40;99941.00;;;;330963;29;95668;-92
2021/04/09 00:36:06;;;;;;;3.55;0.70;;;10.20;72.60;10.40;99944.00;;;;331886;29;92000;-92
2021/04/09 00:36:18;;;;;;;2.97;0.80;;;10.20;72.70;10.40;99939.00;;;;330960;29;96752;-91
2021/04/09 00:36:29;;;;;;;2.67;0.70;;;10.20;72.70;10.50;99935.00;;;;333249;29;92943;-92
2021/04/09 00:36:41;;;;;;;3.53;0.50;;;10.20;72.60;10.50;99938.00;;;;332179;29;97726;-92
2021/04/09 00:36:52;;;;;;;2.55;0.50;;;10.20;72.50;10.40;99942.00;;;;333274;29;92416;-92
2021/04/09 00:37:04;;;;;;;2.30;0.60;;;10.20;73.20;10.40;99934.00;;;;333507;29;95332;-91
2021/04/09 00:37:15;;;;;;;1.73;0.60;;;10.20;72.60;10.50;99939.00;;;;331569;29;92181;-92
2021/04/09 00:37:26;;;;;;;2.47;0.73;;;10.20;72.60;10.40;99942.00;;;;332085;29;95888;-91
2021/04/09 00:37:38;;;;;;;2.78;0.60;;;10.20;72.60;10.30;99947.00;;;;333425;29;91927;-92
2021/04/09 00:37:51;;;;;;;3.03;0.80;;;10.20;72.70;10.30;99938.00;;;;333415;29;96352;-91
2021/04/09 00:38:02;;;;;;;2.72;0.90;;;10.20;72.80;10.40;99943.00;;;;330720;29;91132;-91
2021/04/09 00:38:13;;;;;;;2.70;1.02;;;10.20;72.70;10.50;99945.00;;;;332037;29;96650;-91
2021/04/09 00:38:25;;;;;;;4.32;1.02;;;10.20;72.50;10.50;99937.00;;;;333238;29;92986;-91
2021/04/09 00:38:36;;;;;;;5.28;0.90;;;10.20;72.60;10.30;99939.00;;;;333178;29;97591;-92
2021/04/09 00:38:47;;;;;;;5.18;0.75;;;10.20;72.80;10.30;99944.00;;;;333214;29;91139;-92
2021/04/09 00:39:09;;;;;;;6.22;1.08;;;10.20;72.70;10.30;99934.00;;;;332093;29;96185;-91
2021/04/09 00:39:20;;;;;;;5.45;1.15;;;10.20;72.80;10.20;99932.00;;;;330716;29;92039;-91
2021/04/09 00:39:32;;;;;;;4.08;0.86;;;10.20;72.90;10.30;99940.00;;;;332071;29;95689;-92
2021/04/09 00:39:43;;;;;;;3.90;0.90;;;10.10;72.60;10.30;99947.00;;;;332016;29;92088;-91
2021/04/09 00:39:54;;;;;;;5.25;0.98;;;10.10;72.50;10.30;99940.00;;;;330970;29;95375;-92
2021/04/09 00:40:07;;;;;;;9.93;0.95;;;10.20;72.90;10.30;99941.00;;;;331876;29;91161;-92
2021/04/09 00:40:21;;;;;;;10.23;0.80;;;10.20;72.80;10.30;99941.00;;;;329465;29;93062;-92
2021/04/09 00:40:32;;;;;;;7.18;0.63;;;10.10;72.80;10.20;99958.00;;;;333028;29;93070;-91
2021/04/09 00:40:43;;;;;;;4.25;0.70;;;10.10;73.10;10.30;99944.00;;;;333178;29;97844;-90
2021/04/09 00:40:55;;;;;;;5.15;0.77;;;10.10;72.90;10.20;99944.00;;;;333235;29;92034;-92
2021/04/09 00:41:07;;;;;;;3.47;0.60;;;10.10;73.00;10.30;99944.00;;;;330882;29;95448;-92
2021/04/09 00:41:19;;;;;;;4.30;0.80;;;10.10;73.10;10.20;99958.00;;;;331897;29;92102;-92
2021/04/09 00:41:30;;;;;;;5.13;0.70;;;10.10;73.10;10.30;99938.00;;;;330839;29;95769;-92
2021/04/09 00:41:42;;;;;;;6.57;0.73;;;10.10;73.00;10.30;99930.00;;;;331952;29;92067;-92
2021/04/09 00:41:53;;;;;;;6.50;0.70;;;10.10;72.90;10.30;99938.00;;;;332167;29;96808;-92
2021/04/09 00:42:05;;;;;;;6.32;0.70;;;10.10;72.90;10.40;99946.00;;;;333188;29;91970;-91
2021/04/09 00:42:18;;;;;;;5.28;1.00;;;10.10;73.30;10.40;99939.00;;;;329445;29;95882;-91
2021/04/09 00:42:29;;;;;;;5.35;0.95;;;10.10;72.90;10.30;99942.00;;;;333288;29;92082;-91
2021/04/09 00:42:41;;;;;;;5.60;1.00;;;10.10;73.00;10.30;99949.00;;;;332323;29;97635;-92
2021/04/09 00:42:53;;;;;;;5.95;1.00;;;10.10;73.00;10.30;99958.00;;;;332017;29;92057;-92
2021/04/09 00:43:07;;;;;;;5.18;1.05;;;10.10;72.90;10.30;99948.00;;;;330984;29;96078;-91
2021/04/09 00:43:18;;;;;;;5.05;0.70;;;10.10;72.90;10.20;99938.00;;;;334010;29;91394;-93
2021/04/09 00:43:29;;;;;;;6.97;0.55;;;10.10;73.20;10.20;99938.00;;;;331244;29;95843;-93
2021/04/09 00:43:41;;;;;;;6.55;0.50;;;10.10;73.20;10.30;99941.00;;;;332136;29;92266;-92
2021/04/09 00:43:53;;;;;;;4.10;0.60;;;10.10;72.90;10.30;99943.00;;;;330936;29;96962;-92
2021/04/09 00:44:08;;;;;;;4.07;0.85;;;10.10;72.80;10.20;99938.00;;;;331986;29;92003;-91
2021/04/09 00:44:19;;;;;;;4.75;0.88;;;10.00;72.80;10.20;99945.00;;;;329699;29;95153;-92
2021/04/09 00:44:31;;;;;;;7.18;0.95;;;10.00;73.00;10.20;99949.00;;;;329522;29;92986;-92
2021/04/09 00:44:43;;;;;;;10.90;1.88;;;10.00;72.90;10.20;99936.00;;;;330804;29;97252;-91
2021/04/09 00:44:58;;;;;;;11.02;2.03;;;10.00;72.90;10.20;99941.00;;;;330669;29;92129;-92
2021/04/09 00:45:11;;;;;;;11.63;1.27;;;10.00;73.00;10.20;99936.00;;;;330867;29;95768;-90
2021/04/09 00:45:22;;;;;;;9.60;0.93;;;10.00;73.00;10.20;99936.00;;;;330704;29;91911;-91
2021/04/09 00:45:35;;;;;;;6.68;0.88;;;10.00;72.80;10.20;99940.00;;;;329518;29;95632;-92
2021/04/09 00:45:47;;;;;;;4.72;0.70;;;10.00;72.90;10.30;99940.00;;;;330781;29;92056;-92
2021/04/09 00:45:58;;;;;;;4.95;0.80;;;10.00;72.80;10.30;99932.00;;;;330881;29;95445;-92
2021/04/09 00:46:10;;;;;;;7.70;0.85;;;10.00;72.90;10.20;99935.00;;;;331655;29;92213;-91
2021/04/09 00:46:22;;;;;;;7.55;0.80;;;10.00;73.20;10.30;99930.00;;;;330707;29;95694;-91
2021/04/09 00:46:34;;;;;;;7.15;0.80;;;10.00;73.00;10.30;99940.00;;;;332086;29;92982;-92
2021/04/09 00:46:46;;;;;;;4.00;0.90;;;10.00;72.90;10.10;99940.00;;;;331562;29;97313;-92
2021/04/09 00:46:57;;;;;;;4.75;1.05;;;10.00;73.00;10.10;99938.00;;;;331956;29;92014;-92
2021/04/09 00:47:09;;;;;;;4.57;0.90;;;10.00;73.00;10.20;99945.00;;;;332199;29;95779;-92
2021/04/09 00:47:20;;;;;;;6.10;0.63;;;10.00;72.90;10.30;99940.00;;;;330700;29;92006;-92
2021/04/09 00:47:31;;;;;;;4.95;0.63;;;10.00;72.90;10.20;99934.00;;;;329561;29;96438;-92
2021/04/09 00:47:43;;;;;;;4.07;1.10;;;10.00;73.00;10.30;99939.00;;;;328232;29;91936;-92
2021/04/09 00:47:55;;;;;;;5.63;1.52;;;10.00;73.00;10.30;99945.00;;;;329720;29;95673;-92
2021/04/09 00:48:07;;;;;;;6.18;1.60;;;10.00;73.00;10.30;99944.00;;;;332016;29;91987;-92
2021/04/09 00:48:18;;;;;;;5.10;1.35;;;10.00;73.00;10.30;99945.00;;;;332143;29;95704;-91
2021/04/09 00:48:29;;;;;;;4.22;1.08;;;10.00;73.10;10.20;99942.00;;;;331684;29;93043;-92
2021/04/09 00:48:41;;;;;;;3.92;0.90;;;10.00;73.20;10.30;99936.00;;;;332143;29;97456;-91
2021/04/09 00:48:52;;;;;;;3.72;0.75;;;10.00;73.00;10.20;99937.00;;;;328140;29;92131;-92
2021/04/09 00:49:04;;;;;;;4.40;0.75;;;10.00;73.10;10.20;99933.00;;;;330884;29;96508;-92
2021/04/09 00:49:16;;;;;;;4.82;0.90;;;10.00;73.20;10.20;99940.00;;;;330155;29;92098;-91
2021/04/09 00:49:27;;;;;;;4.55;0.90;;;10.00;73.20;10.20;99935.00;;;;333212;29;96759;-92
2021/04/09 00:49:39;;;;;;;4.22;0.80;;;10.00;73.20;10.30;99938.00;;;;333331;29;91113;-92
2021/04/09 00:49:50;;;;;;;5.13;0.65;;;10.00;73.00;10.20;99940.00;;;;333477;29;94954;-92
2021/04/09 00:50:03;;;;;;;4.47;0.70;;;10.00;73.10;10.20;99931.00;;;;329497;29;92150;-92
2021/04/09 00:50:15;;;;;;;3.90;0.95;;;10.00;73.40;10.20;99935.00;;;;331186;29;96905;-92
2021/04/09 00:50:26;;;;;;;4.88;1.02;;;10.00;73.10;10.10;99943.00;;;;330684;29;92151;-93
2021/04/09 00:50:38;;;;;;;5.60;0.93;;;10.00;73.30;10.10;99941.00;;;;332067;29;97733;-92
2021/04/09 00:50:49;;;;;;;4.65;0.93;;;10.00;73.40;10.20;99938.00;;;;332019;29;92408;-93
2021/04/09 00:51:01;;;;;;;3.88;0.90;;;10.00;73.30;10.10;99937.00;;;;330911;29;94423;-91
2021/04/09 00:51:13;;;;;;;4.03;0.82;;;10.00;73.40;10.20;99937.00;;;;330846;29;91909;-92
2021/04/09 00:51:24;;;;;;;4.97;0.80;;;9.90;73.30;10.10;99934.00;;;;330570;29;96165;-91
2021/04/09 00:51:36;;;;;;;5.10;0.90;;;9.90;73.10;10.20;99940.00;;;;332060;29;92067;-92
2021/04/09 00:51:47;;;;;;;5.28;0.80;;;10.00;73.10;10.20;99925.00;;;;330834;29;95653;-92
2021/04/09 00:52:00;;;;;;;5.13;0.95;;;9.90;73.10;10.20;99929.00;;;;333268;29;91060;-92
2021/04/09 00:52:11;;;;;;;3.78;0.80;;;9.90;73.20;10.20;99927.00;;;;329793;29;92918;-91
2021/04/09 00:52:23;;;;;;;3.55;0.65;;;10.00;73.10;10.30;99928.00;;;;332990;29;93123;-92
2021/04/09 00:52:35;;;;;;;3.63;0.73;;;9.90;73.10;10.20;99929.00;;;;330935;29;97464;-92
2021/04/09 00:52:47;;;;;;;2.92;0.82;;;9.90;73.10;10.30;99926.00;;;;333125;29;92077;-92
2021/04/09 00:53:00;;;;;;;4.15;0.75;;;9.90;73.10;10.20;99928.00;;;;332185;29;95368;-91
2021/04/09 00:53:14;;;;;;;4.80;0.90;;;9.90;73.10;10.10;99921.00;;;;332230;29;91184;-92
2021/04/09 00:53:26;;;;;;;4.63;0.70;;;9.90;73.20;10.20;99927.00;;;;335043;29;95413;-91
2021/04/09 00:53:38;;;;;;;3.08;0.55;;;9.90;73.10;10.10;99928.00;;;;334726;29;92146;-92